Time;durP1;ratioP1;P1;durP2;ratioP2;P2;SDS_P1;SDS_P2;PMS_P1;PMS_P2;Temp;Humidity;BMP_temperature;BMP_pressure;BME280_temperature;BME280_humidity;BME280_pressure;Samples;Min_cycle;Max_cycle;Signal;HPM_P1;HPM_P2
2022/03/14 00:01:30;;;;;;;11.55;10.45;;;10.10;50.30;;;;;;6051323;23;20215;-80
2022/03/14 00:03:58;;;;;;;12.05;10.75;;;10.00;50.50;;;;;;6044869;23;20189;-80
2022/03/14 00:06:26;;;;;;;11.90;10.45;;;10.10;50.80;;;;;;6045460;23;20192;-79
2022/03/14 00:08:57;;;;;;;10.40;9.30;;;9.90;51.50;;;;;;6044228;23;20993;-79
2022/03/14 00:11:26;;;;;;;12.00;10.15;;;9.90;51.70;;;;;;6059821;23;20207;-80
2022/03/14 00:13:55;;;;;;;11.02;9.93;;;9.90;51.60;;;;;;6049996;23;20185;-79
2022/03/14 00:16:23;;;;;;;10.95;9.85;;;10.00;50.90;;;;;;6045389;23;20273;-80
2022/03/14 00:18:51;;;;;;;11.88;10.65;;;9.90;51.80;;;;;;6049079;23;20216;-79
2022/03/14 00:21:21;;;;;;;11.10;9.70;;;9.90;51.40;;;;;;6050676;23;20303;-80
2022/03/14 00:23:48;;;;;;;11.00;9.90;;;10.00;50.20;;;;;;6048331;23;20199;-80
2022/03/14 00:26:15;;;;;;;12.18;9.77;;;10.00;49.90;;;;;;6055831;23;20267;-80
2022/03/14 00:28:42;;;;;;;11.15;10.05;;;10.10;50.00;;;;;;6058097;23;20606;-79
2022/03/14 00:31:10;;;;;;;11.93;10.10;;;10.20;50.30;;;;;;6058672;23;20603;-79
2022/03/14 00:33:39;;;;;;;11.20;10.10;;;10.20;50.70;;;;;;6048662;23;20188;-79
2022/03/14 00:36:08;;;;;;;12.88;11.57;;;10.10;51.20;;;;;;6052824;23;20202;-79
2022/03/14 00:38:36;;;;;;;13.35;11.43;;;9.80;53.60;;;;;;6050541;23;20277;-79
2022/03/14 00:41:03;;;;;;;13.98;11.73;;;9.60;54.30;;;;;;6047384;23;20709;-80
2022/03/14 00:43:31;;;;;;;13.20;11.70;;;9.40;55.00;;;;;;6052445;23;20277;-79
2022/03/14 00:45:57;;;;;;;13.10;11.73;;;9.30;55.30;;;;;;6053465;23;20713;-79
2022/03/14 00:48:26;;;;;;;14.25;11.50;;;9.30;55.60;;;;;;6050496;23;20258;-78
2022/03/14 00:50:53;;;;;;;14.57;11.05;;;9.30;55.70;;;;;;6050005;23;20202;-79
2022/03/14 00:53:20;;;;;;;11.63;10.20;;;9.30;55.30;;;;;;6046428;23;20262;-78
2022/03/14 00:55:47;;;;;;;12.30;10.88;;;9.40;54.50;;;;;;6056823;23;20275;-79
2022/03/14 00:58:15;;;;;;;12.18;10.82;;;9.50;53.60;;;;;;6056155;23;20308;-79
2022/03/14 01:00:42;;;;;;;14.20;12.70;;;9.60;54.40;;;;;;6049300;23;20219;-79
2022/03/14 01:03:09;;;;;;;15.45;13.65;;;9.70;55.30;;;;;;6052073;23;20298;-79
2022/03/14 01:05:37;;;;;;;15.15;13.65;;;9.80;57.20;;;;;;6051106;23;20261;-79
2022/03/14 01:08:06;;;;;;;14.35;12.73;;;10.00;56.80;;;;;;6047962;23;20678;-79
2022/03/14 01:10:33;;;;;;;17.90;13.95;;;10.10;57.10;;;;;;6046630;23;20199;-80
2022/03/14 01:13:02;;;;;;;15.00;13.35;;;10.20;57.50;;;;;;6052293;23;20220;-79
2022/03/14 01:15:31;;;;;;;15.88;14.27;;;10.30;58.00;;;;;;6051233;23;20204;-79
2022/03/14 01:17:58;;;;;;;15.15;13.57;;;10.30;58.70;;;;;;6044056;23;20621;-79
2022/03/14 01:20:25;;;;;;;16.30;14.55;;;10.30;59.80;;;;;;6048716;23;20282;-79
2022/03/14 01:22:55;;;;;;;16.35;14.60;;;10.20;63.00;;;;;;6048622;23;20276;-79
2022/03/14 01:25:23;;;;;;;15.57;13.77;;;10.20;64.50;;;;;;6051582;23;20192;-79
2022/03/14 01:27:51;;;;;;;20.08;14.73;;;10.10;70.50;;;;;;6048399;23;20223;-80
2022/03/14 01:30:18;;;;;;;16.15;14.45;;;10.10;80.90;;;;;;6046754;23;20193;-78
2022/03/14 01:32:45;;;;;;;17.27;13.27;;;10.00;92.00;;;;;;6046388;23;20315;-79
2022/03/14 01:35:12;;;;;;;14.40;12.70;;;10.00;98.20;;;;;;6049253;23;20189;-79
2022/03/14 01:37:39;;;;;;;12.68;11.45;;;10.00;99.90;;;;;;6054917;23;20879;-79
2022/03/14 01:40:10;;;;;;;11.35;10.25;;;10.00;99.90;;;;;;6052895;23;20185;-79
2022/03/14 01:42:37;;;;;;;12.88;11.63;;;10.00;99.90;;;;;;6053494;23;20196;-79
2022/03/14 01:45:05;;;;;;;13.02;11.68;;;10.00;99.90;;;;;;6052252;23;20636;-79
2022/03/14 01:47:34;;;;;;;11.70;10.50;;;10.10;99.90;;;;;;6057833;23;20216;-79
2022/03/14 01:50:01;;;;;;;11.18;9.70;;;10.10;99.90;;;;;;6061415;23;20204;-80
2022/03/14 01:52:28;;;;;;;10.07;9.02;;;10.10;99.90;;;;;;6052757;23;20623;-79
2022/03/14 01:54:55;;;;;;;9.63;8.60;;;10.00;99.90;;;;;;6049846;23;20624;-78
2022/03/14 01:57:24;;;;;;;8.50;7.70;;;10.00;99.90;;;;;;6063985;23;20323;-78
2022/03/14 01:59:53;;;;;;;7.10;6.50;;;10.00;99.90;;;;;;6067138;23;20224;-78
2022/03/14 02:02:20;;;;;;;5.32;4.90;;;10.00;99.90;;;;;;6063330;23;20197;-79
2022/03/14 02:04:48;;;;;;;4.25;3.63;;;9.90;99.90;;;;;;6064134;23;20621;-78
2022/03/14 02:07:14;;;;;;;3.88;3.45;;;9.90;99.90;;;;;;6053428;23;20212;-78
2022/03/14 02:09:41;;;;;;;3.92;3.63;;;9.90;99.90;;;;;;6046348;23;20197;-78
2022/03/14 02:12:10;;;;;;;4.38;3.60;;;9.80;99.90;;;;;;6058582;23;20638;-79
2022/03/14 02:14:40;;;;;;;4.32;3.65;;;9.80;99.90;;;;;;6058620;23;20283;-79
2022/03/14 02:17:08;;;;;;;6.25;3.80;;;9.80;99.90;;;;;;6044088;23;20249;-79
2022/03/14 02:19:35;;;;;;;4.40;3.63;;;9.80;99.90;;;;;;6053580;23;20270;-80
2022/03/14 02:22:05;;;;;;;4.50;3.63;;;9.70;99.90;;;;;;6040365;23;20282;-80
2022/03/14 02:24:32;;;;;;;4.80;3.70;;;9.70;99.90;;;;;;6043707;23;20190;-79
2022/03/14 02:26:59;;;;;;;3.58;3.28;;;9.70;99.90;;;;;;6056861;23;20303;-80
2022/03/14 02:29:26;;;;;;;3.65;3.35;;;9.60;99.90;;;;;;6047894;23;20197;-79
2022/03/14 02:31:54;;;;;;;3.47;3.17;;;9.60;99.90;;;;;;6045558;23;20239;-79
2022/03/14 02:34:21;;;;;;;3.60;3.30;;;9.50;99.90;;;;;;6042780;23;20610;-79
2022/03/14 02:36:48;;;;;;;2.70;2.50;;;9.50;99.90;;;;;;6056753;23;20295;-80
2022/03/14 02:39:17;;;;;;;2.60;2.40;;;9.40;99.90;;;;;;6049167;23;20197;-80
2022/03/14 02:41:45;;;;;;;2.42;2.22;;;9.40;99.90;;;;;;6050021;23;20265;-80
2022/03/14 02:44:13;;;;;;;3.20;2.47;;;9.40;99.90;;;;;;6042714;23;20671;-80
2022/03/14 02:46:40;;;;;;;2.17;2.00;;;9.40;99.90;;;;;;6048123;23;20216;-80
2022/03/14 02:49:09;;;;;;;2.30;2.10;;;9.30;99.90;;;;;;6048638;23;20193;-80
2022/03/14 02:51:38;;;;;;;2.28;2.08;;;9.30;99.90;;;;;;6054471;23;20276;-80
2022/03/14 02:54:05;;;;;;;2.55;2.35;;;9.30;99.90;;;;;;6057978;23;20711;-80
2022/03/14 02:56:34;;;;;;;2.33;2.13;;;9.30;99.90;;;;;;6057366;23;20240;-80
2022/03/14 02:59:01;;;;;;;2.30;2.10;;;9.20;99.90;;;;;;6046113;23;20192;-80
2022/03/14 03:01:29;;;;;;;2.50;2.30;;;9.20;99.90;;;;;;6047933;23;20207;-80
2022/03/14 03:03:56;;;;;;;2.10;1.80;;;9.30;99.90;;;;;;6051210;23;20721;-80
2022/03/14 03:06:23;;;;;;;2.80;2.60;;;9.20;99.90;;;;;;6048955;23;20194;-81
2022/03/14 03:08:50;;;;;;;2.95;2.75;;;9.20;99.90;;;;;;6038375;23;20192;-82
2022/03/14 03:11:18;;;;;;;4.20;2.80;;;9.20;99.90;;;;;;6053125;23;20202;-82
2022/03/14 03:13:47;;;;;;;2.80;2.60;;;9.20;99.90;;;;;;6046312;23;20256;-83
2022/03/14 03:16:16;;;;;;;3.50;2.85;;;9.20;99.90;;;;;;6045531;23;20555;-83
2022/03/14 03:18:45;;;;;;;2.50;2.30;;;9.20;99.90;;;;;;6053990;23;20801;-84
2022/03/14 03:21:12;;;;;;;3.30;3.00;;;9.10;99.90;;;;;;6048311;23;20193;-84
2022/03/14 03:23:40;;;;;;;2.60;2.40;;;9.10;99.90;;;;;;6051004;23;20206;-84
2022/03/14 03:26:08;;;;;;;2.30;2.10;;;9.00;99.90;;;;;;6046764;23;20187;-84
2022/03/14 03:28:36;;;;;;;2.50;2.30;;;9.00;99.90;;;;;;6050989;23;20250;-83
2022/03/14 03:31:07;;;;;;;2.50;2.30;;;8.90;99.90;;;;;;6046331;23;20887;-83
2022/03/14 03:33:34;;;;;;;3.13;2.83;;;8.90;99.90;;;;;;6046066;23;20255;-83
2022/03/14 03:36:01;;;;;;;3.03;2.72;;;8.90;99.90;;;;;;6055859;23;20233;-83
2022/03/14 03:38:28;;;;;;;2.80;2.60;;;8.80;99.90;;;;;;6050647;23;20225;-83
2022/03/14 03:40:55;;;;;;;3.00;2.80;;;8.80;99.90;;;;;;6053255;23;20656;-83
2022/03/14 03:43:22;;;;;;;3.42;2.60;;;8.80;99.90;;;;;;6056077;23;20272;-83
2022/03/14 03:45:49;;;;;;;3.17;2.80;;;8.80;99.90;;;;;;6044272;23;20320;-82
2022/03/14 03:48:18;;;;;;;3.03;2.83;;;8.80;99.90;;;;;;6048194;23;20214;-83
2022/03/14 03:50:45;;;;;;;3.05;2.75;;;8.80;99.90;;;;;;6054769;23;20189;-83
2022/03/14 03:53:12;;;;;;;3.13;2.83;;;8.80;99.90;;;;;;6051501;23;20666;-83
2022/03/14 03:55:39;;;;;;;3.22;2.92;;;8.80;99.90;;;;;;6043621;23;20213;-85
2022/03/14 03:58:06;;;;;;;3.85;3.53;;;8.80;99.90;;;;;;6054061;23;20223;-83
2022/03/14 04:00:33;;;;;;;3.30;3.03;;;8.80;99.90;;;;;;6041052;23;20223;-84
2022/03/14 04:03:01;;;;;;;4.47;4.03;;;8.80;99.90;;;;;;6049665;23;20585;-83
2022/03/14 04:05:30;;;;;;;3.00;2.70;;;8.90;99.90;;;;;;6052012;23;20191;-84
2022/03/14 04:07:58;;;;;;;2.78;2.58;;;9.00;99.90;;;;;;6056749;23;20224;-83
2022/03/14 04:10:29;;;;;;;3.30;2.50;;;9.00;99.90;;;;;;6044947;23;20302;-84
2022/03/14 04:12:57;;;;;;;2.72;2.53;;;9.00;99.90;;;;;;6054228;23;20220;-83
2022/03/14 04:15:24;;;;;;;2.88;2.67;;;9.10;99.90;;;;;;6047464;23;20195;-82
2022/03/14 04:17:52;;;;;;;3.35;3.00;;;9.10;99.90;;;;;;6049401;23;20224;-83
2022/03/14 04:20:22;;;;;;;2.70;2.50;;;9.10;99.90;;;;;;6051956;23;20191;-83
2022/03/14 04:22:50;;;;;;;3.22;2.80;;;9.20;99.90;;;;;;6054306;23;20255;-83
2022/03/14 04:25:17;;;;;;;2.72;2.53;;;9.20;99.90;;;;;;6051973;23;20215;-82
2022/03/14 04:27:44;;;;;;;3.05;2.75;;;9.20;99.90;;;;;;6064084;23;20278;-83
2022/03/14 04:30:12;;;;;;;3.72;3.20;;;9.20;99.90;;;;;;6055129;23;20238;-84
2022/03/14 04:32:39;;;;;;;3.05;2.75;;;9.20;99.90;;;;;;6025124;23;20226;-83
2022/03/14 04:35:07;;;;;;;2.85;2.65;;;9.20;99.90;;;;;;6052429;23;20200;-84
2022/03/14 04:37:34;;;;;;;3.38;3.10;;;9.30;99.90;;;;;;6053532;23;20222;-83
2022/03/14 04:40:03;;;;;;;2.83;2.63;;;9.20;99.90;;;;;;6048839;23;20283;-84
2022/03/14 04:42:30;;;;;;;2.83;2.63;;;9.20;99.90;;;;;;6048384;23;20195;-82
2022/03/14 04:44:57;;;;;;;3.80;2.72;;;9.20;99.90;;;;;;6041182;23;20186;-85
2022/03/14 04:47:25;;;;;;;2.88;2.67;;;9.20;99.90;;;;;;6053054;23;20220;-82
2022/03/14 04:49:52;;;;;;;3.10;2.80;;;9.10;99.90;;;;;;6051301;23;20245;-80
2022/03/14 04:52:21;;;;;;;2.90;2.70;;;9.10;99.90;;;;;;6046510;23;20190;-81
2022/03/14 04:54:48;;;;;;;3.35;3.05;;;9.00;99.90;;;;;;6054144;23;20197;-78
2022/03/14 04:57:17;;;;;;;3.10;2.80;;;9.00;99.90;;;;;;6040898;23;20989;-79
2022/03/14 04:59:43;;;;;;;3.45;2.90;;;9.10;99.90;;;;;;6049363;23;20218;-78
2022/03/14 05:02:10;;;;;;;3.00;2.75;;;9.10;99.90;;;;;;6053366;23;20197;-80
2022/03/14 05:04:38;;;;;;;3.05;2.85;;;9.00;99.90;;;;;;6051147;23;20594;-79
2022/03/14 05:07:07;;;;;;;2.85;2.60;;;8.90;99.90;;;;;;6054666;23;20220;-79
2022/03/14 05:09:34;;;;;;;2.90;2.70;;;8.90;99.90;;;;;;6048428;23;20297;-80
2022/03/14 05:12:01;;;;;;;3.88;2.97;;;8.90;99.90;;;;;;6051164;23;20195;-80
2022/03/14 05:14:30;;;;;;;2.83;2.53;;;8.90;99.90;;;;;;6054339;23;20235;-78
2022/03/14 05:16:57;;;;;;;2.80;2.60;;;8.90;99.90;;;;;;6050922;23;20214;-79
2022/03/14 05:19:24;;;;;;;3.13;2.55;;;8.90;99.90;;;;;;6048695;23;20562;-81
2022/03/14 05:21:51;;;;;;;2.80;2.60;;;9.00;99.90;;;;;;6057751;23;20633;-80
2022/03/14 05:24:18;;;;;;;3.65;2.55;;;9.00;99.90;;;;;;6049710;23;20720;-81
2022/03/14 05:26:47;;;;;;;3.20;2.83;;;9.00;99.90;;;;;;6052817;23;20223;-78
2022/03/14 05:29:15;;;;;;;2.65;2.45;;;9.00;99.90;;;;;;6051406;23;20249;-79
2022/03/14 05:31:44;;;;;;;2.85;2.65;;;8.90;99.90;;;;;;6057914;23;20192;-79
2022/03/14 05:34:11;;;;;;;2.80;2.60;;;8.80;99.90;;;;;;6050524;23;21437;-80
2022/03/14 05:36:40;;;;;;;3.42;3.15;;;8.70;99.90;;;;;;6042262;23;20278;-80
2022/03/14 05:39:08;;;;;;;3.00;2.75;;;8.70;99.90;;;;;;6049682;23;20249;-80
2022/03/14 05:41:34;;;;;;;2.90;2.70;;;8.70;99.90;;;;;;6046984;23;20182;-79
2022/03/14 05:44:02;;;;;;;3.50;2.67;;;8.70;99.90;;;;;;6046360;23;20198;-79
2022/03/14 05:46:29;;;;;;;3.10;2.80;;;8.60;99.90;;;;;;6041067;23;20626;-78
2022/03/14 05:48:58;;;;;;;3.75;2.78;;;8.60;99.90;;;;;;6043867;23;20223;-78
2022/03/14 05:51:25;;;;;;;2.50;2.30;;;8.50;99.90;;;;;;6045466;23;20194;-78
2022/03/14 05:53:52;;;;;;;2.58;2.30;;;8.50;99.90;;;;;;6051087;23;20207;-80
2022/03/14 05:56:19;;;;;;;3.05;2.50;;;8.50;99.90;;;;;;6050566;23;20243;-80
2022/03/14 05:58:46;;;;;;;2.85;1.70;;;8.30;99.90;;;;;;6045019;23;20193;-80
2022/03/14 06:01:14;;;;;;;3.65;1.80;;;8.30;99.90;;;;;;6049837;23;20200;-80
2022/03/14 06:03:41;;;;;;;3.40;1.65;;;8.20;99.90;;;;;;6056064;23;20204;-80
2022/03/14 06:06:09;;;;;;;3.45;1.10;;;8.20;99.90;;;;;;6051205;23;20214;-80
2022/03/14 06:08:36;;;;;;;2.28;1.08;;;8.20;99.90;;;;;;6048186;23;20222;-80
2022/03/14 06:11:07;;;;;;;2.38;0.80;;;8.20;99.90;;;;;;6046045;23;20216;-80
2022/03/14 06:13:35;;;;;;;1.77;1.05;;;8.20;99.90;;;;;;6050996;23;20704;-80
2022/03/14 06:16:03;;;;;;;2.03;1.65;;;8.20;99.90;;;;;;6044174;23;20212;-80
2022/03/14 06:18:30;;;;;;;2.80;1.20;;;8.30;99.90;;;;;;6056659;23;20185;-79
2022/03/14 06:20:57;;;;;;;2.97;1.02;;;8.30;99.90;;;;;;6056736;23;20305;-80
2022/03/14 06:23:25;;;;;;;4.20;1.25;;;8.30;99.90;;;;;;6050030;23;20290;-78
2022/03/14 06:25:54;;;;;;;3.83;1.45;;;8.30;99.90;;;;;;6056888;23;20221;-78
2022/03/14 06:28:22;;;;;;;5.50;1.38;;;8.20;99.90;;;;;;6060259;23;20215;-80
2022/03/14 06:30:49;;;;;;;4.15;1.10;;;8.20;99.90;;;;;;6052404;23;20580;-76
2022/03/14 06:33:17;;;;;;;3.10;1.30;;;8.20;99.90;;;;;;6056047;23;20680;-79
2022/03/14 06:35:44;;;;;;;2.67;1.20;;;8.20;99.90;;;;;;6041755;23;20196;-78
2022/03/14 06:38:11;;;;;;;2.15;1.17;;;8.20;99.90;;;;;;6047073;23;20197;-79
2022/03/14 06:40:41;;;;;;;4.78;1.38;;;8.20;99.90;;;;;;6051545;23;20313;-79
2022/03/14 06:43:10;;;;;;;4.55;1.27;;;8.20;99.90;;;;;;6055047;23;20197;-78
2022/03/14 06:45:39;;;;;;;1.73;1.10;;;8.20;99.90;;;;;;6042499;23;20200;-79
2022/03/14 06:48:06;;;;;;;4.65;1.00;;;8.20;99.90;;;;;;6055339;23;20209;-79
2022/03/14 06:50:35;;;;;;;3.22;1.40;;;8.20;99.90;;;;;;6058959;23;20724;-78
2022/03/14 06:53:03;;;;;;;3.00;1.20;;;8.40;99.90;;;;;;6046307;23;20190;-79
2022/03/14 06:55:30;;;;;;;2.90;1.10;;;8.80;99.90;;;;;;6050295;23;20188;-78
2022/03/14 06:57:58;;;;;;;2.83;1.17;;;9.20;99.90;;;;;;6058043;23;20191;-79
2022/03/14 07:00:26;;;;;;;2.65;1.33;;;9.60;99.90;;;;;;6057489;23;20198;-79
2022/03/14 07:02:53;;;;;;;4.90;1.48;;;9.90;99.90;;;;;;6053404;23;20193;-77
2022/03/14 07:05:23;;;;;;;2.63;1.60;;;10.10;99.90;;;;;;6057474;23;20177;-79
2022/03/14 07:07:52;;;;;;;4.07;1.40;;;10.30;99.90;;;;;;6057463;23;20192;-79
2022/03/14 07:10:19;;;;;;;3.35;1.58;;;10.60;99.90;;;;;;6056159;23;20188;-77
2022/03/14 07:12:48;;;;;;;6.13;1.50;;;11.00;99.90;;;;;;6053147;23;20184;-77
2022/03/14 07:15:21;;;;;;;3.88;1.73;;;11.60;99.90;;;;;;6047960;23;20571;-78
2022/03/14 07:17:49;;;;;;;2.88;1.30;;;12.00;99.90;;;;;;6056179;23;20188;-78
2022/03/14 07:20:18;;;;;;;3.05;1.67;;;11.90;99.90;;;;;;6046317;23;20626;-76
2022/03/14 07:22:50;;;;;;;3.92;1.55;;;11.90;99.90;;;;;;6050306;23;20193;-76
2022/03/14 07:25:20;;;;;;;4.28;1.40;;;12.00;99.90;;;;;;6057063;23;20668;-78
2022/03/14 07:27:47;;;;;;;4.13;2.03;;;12.30;99.90;;;;;;6059126;23;20245;-78
2022/03/14 07:30:14;;;;;;;1.83;1.05;;;12.80;99.90;;;;;;6068983;23;20288;-78
2022/03/14 07:32:43;;;;;;;5.03;1.67;;;13.10;99.90;;;;;;6056571;23;20190;-79
2022/03/14 07:35:10;;;;;;;4.10;1.23;;;13.70;99.90;;;;;;6063859;23;20245;-79
2022/03/14 07:37:38;;;;;;;3.87;1.27;;;14.20;99.90;;;;;;6043922;23;20479;-79
2022/03/14 07:40:07;;;;;;;2.10;1.20;;;14.40;99.90;;;;;;6051719;23;20848;-79
2022/03/14 07:42:39;;;;;;;5.73;1.50;;;14.20;99.90;;;;;;6053161;23;20454;-79
2022/03/14 07:45:07;;;;;;;2.20;1.20;;;14.30;99.90;;;;;;6047128;23;20444;-79
2022/03/14 07:47:35;;;;;;;2.23;1.37;;;14.70;99.90;;;;;;6069392;23;20478;-79
2022/03/14 07:50:05;;;;;;;3.10;1.20;;;14.80;99.90;;;;;;6059960;23;20454;-79
2022/03/14 07:52:32;;;;;;;2.43;1.30;;;14.70;99.90;;;;;;6042447;23;20942;-78
2022/03/14 07:54:59;;;;;;;2.60;1.10;;;14.40;99.90;;;;;;6051428;23;20487;-79
2022/03/14 07:57:26;;;;;;;4.33;1.87;;;14.50;99.60;;;;;;6047931;23;20540;-79
2022/03/14 07:59:53;;;;;;;3.50;1.30;;;15.10;99.80;;;;;;6047065;23;20518;-78
2022/03/14 08:02:21;;;;;;;3.03;1.20;;;15.60;98.00;;;;;;6059840;23;20450;-79
2022/03/14 08:04:47;;;;;;;2.40;1.17;;;15.70;97.60;;;;;;6063034;23;20446;-78
2022/03/14 08:07:16;;;;;;;2.17;1.07;;;15.40;97.50;;;;;;6059729;23;20881;-78
2022/03/14 08:09:43;;;;;;;3.23;1.40;;;14.50;98.40;;;;;;6056213;23;20491;-78
2022/03/14 08:12:11;;;;;;;4.73;1.40;;;13.60;99.60;;;;;;6050347;23;20446;-78
2022/03/14 08:14:38;;;;;;;2.80;1.33;;;13.20;99.90;;;;;;6049841;23;20563;-78
2022/03/14 08:17:05;;;;;;;3.10;1.20;;;12.90;99.90;;;;;;6058198;23;20214;-78
2022/03/14 08:19:32;;;;;;;1.63;1.20;;;12.20;99.90;;;;;;6058978;23;20556;-79
2022/03/14 08:22:01;;;;;;;5.35;1.52;;;11.80;99.90;;;;;;6049155;23;20563;-78
2022/03/14 08:24:29;;;;;;;6.50;1.50;;;11.30;99.90;;;;;;6050504;23;20244;-79
2022/03/14 08:26:56;;;;;;;3.95;1.20;;;11.00;99.90;;;;;;6051302;23;20225;-79
2022/03/14 08:29:23;;;;;;;3.60;1.10;;;10.80;99.90;;;;;;6047143;23;20275;-79
2022/03/14 08:31:50;;;;;;;3.72;1.58;;;10.60;99.90;;;;;;6054580;23;20212;-79
2022/03/14 08:34:17;;;;;;;3.65;1.70;;;10.60;99.90;;;;;;6047716;23;20234;-79
2022/03/14 08:36:45;;;;;;;1.55;1.00;;;11.00;99.90;;;;;;6051455;23;20211;-78
2022/03/14 08:39:12;;;;;;;2.22;1.20;;;11.20;99.90;;;;;;6056164;23;20182;-78
2022/03/14 08:41:40;;;;;;;2.30;1.00;;;11.50;99.90;;;;;;6056998;23;20643;-77
2022/03/14 08:44:08;;;;;;;3.33;1.20;;;11.60;99.90;;;;;;6057531;23;20220;-77
2022/03/14 08:46:36;;;;;;;2.05;1.10;;;11.80;99.90;;;;;;6056888;23;20891;-78
2022/03/14 08:49:03;;;;;;;3.10;1.20;;;12.50;99.90;;;;;;6052228;23;20269;-77
2022/03/14 08:51:30;;;;;;;1.70;0.87;;;13.40;99.90;;;;;;6068424;23;20526;-77
2022/03/14 08:53:57;;;;;;;3.08;1.02;;;13.40;99.20;;;;;;6053414;23;20550;-76
2022/03/14 08:56:25;;;;;;;2.80;1.20;;;13.10;99.80;;;;;;6050665;23;20211;-77
2022/03/14 08:58:53;;;;;;;2.63;1.15;;;12.40;99.90;;;;;;6050920;23;20196;-78
2022/03/14 09:01:20;;;;;;;2.85;1.20;;;11.80;99.90;;;;;;6054867;23;20181;-78
2022/03/14 09:03:47;;;;;;;3.55;1.27;;;11.30;99.90;;;;;;6057927;23;20193;-78
2022/03/14 09:06:14;;;;;;;8.15;1.55;;;11.20;99.90;;;;;;6052480;23;20718;-78
2022/03/14 09:08:41;;;;;;;2.25;1.25;;;11.10;99.90;;;;;;6052575;23;20192;-77
2022/03/14 09:11:08;;;;;;;4.07;1.58;;;11.20;99.90;;;;;;6048645;23;20743;-78
2022/03/14 09:13:35;;;;;;;4.85;1.60;;;11.30;99.90;;;;;;6060928;23;20176;-78
2022/03/14 09:16:04;;;;;;;4.35;1.55;;;11.40;99.90;;;;;;6057697;23;20568;-77
2022/03/14 09:18:31;;;;;;;3.60;1.10;;;11.70;99.60;;;;;;6054072;23;20184;-77
2022/03/14 09:20:58;;;;;;;1.90;1.10;;;12.20;98.50;;;;;;6052914;23;20264;-78
2022/03/14 09:23:26;;;;;;;1.92;1.10;;;12.30;97.10;;;;;;6056802;23;20730;-76
2022/03/14 09:25:55;;;;;;;6.03;1.30;;;11.80;97.70;;;;;;6050636;23;20278;-77
2022/03/14 09:28:22;;;;;;;4.35;1.15;;;11.70;98.80;;;;;;6051995;23;20295;-77
2022/03/14 09:30:49;;;;;;;3.72;1.40;;;11.50;98.40;;;;;;6052138;23;20552;-77
2022/03/14 09:33:17;;;;;;;3.92;1.33;;;11.40;98.60;;;;;;6058031;23;20711;-78
2022/03/14 09:35:44;;;;;;;4.70;1.50;;;11.30;98.50;;;;;;6061061;23;20222;-77
2022/03/14 09:38:15;;;;;;;3.60;1.20;;;11.50;99.80;;;;;;6050517;23;20186;-78
2022/03/14 09:40:44;;;;;;;2.45;1.20;;;12.00;99.10;;;;;;6053150;23;20215;-78
2022/03/14 09:43:14;;;;;;;2.87;1.40;;;13.10;98.80;;;;;;6056734;23;20657;-78
2022/03/14 09:45:46;;;;;;;2.53;1.30;;;14.30;97.00;;;;;;6059188;23;20458;-78
2022/03/14 09:48:15;;;;;;;2.40;1.37;;;15.30;95.50;;;;;;6062947;23;20443;-77
2022/03/14 09:50:45;;;;;;;2.67;1.10;;;16.30;94.70;;;;;;6051776;23;20435;-78
2022/03/14 09:53:14;;;;;;;2.27;1.43;;;16.90;91.00;;;;;;6049879;23;20471;-78
2022/03/14 09:55:44;;;;;;;1.63;1.10;;;17.50;90.20;;;;;;6043854;23;20482;-78
2022/03/14 09:58:12;;;;;;;3.37;1.60;;;17.50;85.80;;;;;;6047998;23;20440;-79
2022/03/14 10:00:40;;;;;;;2.40;1.13;;;17.70;84.70;;;;;;6052803;23;20530;-77
2022/03/14 10:03:07;;;;;;;4.10;1.30;;;17.60;82.70;;;;;;6054198;23;20944;-78
2022/03/14 10:05:34;;;;;;;3.10;1.33;;;18.10;81.90;;;;;;6053067;23;20462;-78
2022/03/14 10:08:03;;;;;;;2.87;1.27;;;17.80;77.00;;;;;;6045157;23;20451;-78
2022/03/14 10:10:30;;;;;;;4.53;1.40;;;17.40;79.00;;;;;;6058667;23;20455;-78
2022/03/14 10:12:58;;;;;;;3.93;1.37;;;17.80;78.20;;;;;;6045887;23;20502;-79
2022/03/14 10:15:26;;;;;;;3.07;1.30;;;18.20;77.50;;;;;;6049520;23;21032;-78
2022/03/14 10:17:54;;;;;;;2.93;1.20;;;18.50;75.50;;;;;;6051556;23;20443;-78
2022/03/14 10:20:22;;;;;;;2.40;1.20;;;18.80;75.40;;;;;;6058837;23;20518;-78
2022/03/14 10:22:50;;;;;;;3.43;1.33;;;18.50;72.50;;;;;;6051654;23;20432;-78
2022/03/14 10:25:21;;;;;;;2.67;0.97;;;18.60;71.10;;;;;;6057224;23;20610;-78
2022/03/14 10:27:49;;;;;;;3.57;1.40;;;18.70;69.50;;;;;;6053929;23;20447;-78
2022/03/14 10:30:26;;;;;;;1.77;1.10;;;18.60;68.70;;;;;;6053238;23;20453;-78
2022/03/14 10:33:01;;;;;;;3.60;1.10;;;18.30;69.70;;;;;;6047891;23;20470;-78
2022/03/14 10:35:35;;;;;;;2.00;1.33;;;18.90;69.60;;;;;;6055850;23;20471;-78
2022/03/14 10:38:04;;;;;;;2.00;1.13;;;19.40;67.90;;;;;;6056644;23;20514;-78
2022/03/14 10:40:34;;;;;;;3.50;1.40;;;19.10;67.00;;;;;;6047551;23;20444;-78
2022/03/14 10:43:02;;;;;;;2.97;1.20;;;19.20;67.80;;;;;;6058040;23;20528;-78
2022/03/14 10:45:31;;;;;;;2.70;1.50;;;18.50;67.30;;;;;;6054293;23;21549;-78
2022/03/14 10:48:02;;;;;;;3.77;1.20;;;17.90;68.30;;;;;;6055832;23;20449;-78
2022/03/14 10:50:31;;;;;;;2.67;0.97;;;17.10;69.50;;;;;;6048100;23;20432;-79
2022/03/14 10:53:06;;;;;;;3.77;1.30;;;15.80;70.50;;;;;;6053471;23;20443;-78
2022/03/14 10:55:42;;;;;;;2.80;1.40;;;14.80;72.70;;;;;;6053076;23;21029;-78
2022/03/14 10:58:11;;;;;;;4.57;1.27;;;14.50;75.10;;;;;;6056126;23;20444;-78
2022/03/14 11:00:46;;;;;;;4.27;1.47;;;14.00;76.30;;;;;;6057957;23;20532;-79
2022/03/14 11:03:15;;;;;;;3.17;1.37;;;13.70;78.00;;;;;;6063546;23;21154;-77
2022/03/14 11:05:46;;;;;;;2.70;1.27;;;13.70;78.70;;;;;;6056371;23;20455;-78
2022/03/14 11:08:29;;;;;;;2.70;1.10;;;13.40;77.70;;;;;;6051161;23;21185;-78
2022/03/14 11:10:58;;;;;;;5.13;1.23;;;13.30;77.60;;;;;;6049987;23;20432;-78
2022/03/14 11:13:26;;;;;;;3.37;1.50;;;13.30;79.30;;;;;;6051545;23;20240;-78
2022/03/14 11:15:56;;;;;;;2.20;1.03;;;13.10;78.70;;;;;;6045157;23;20479;-75
2022/03/14 11:18:23;;;;;;;1.77;1.10;;;13.00;80.00;;;;;;6053418;23;20443;-77
2022/03/14 11:20:51;;;;;;;2.43;1.03;;;13.10;79.10;;;;;;6056633;23;20439;-77
2022/03/14 11:23:21;;;;;;;1.17;1.00;;;13.20;79.10;;;;;;6055223;23;20468;-77
2022/03/14 11:25:49;;;;;;;1.33;0.93;;;14.10;78.40;;;;;;6058168;23;20574;-78
2022/03/14 11:28:19;;;;;;;1.83;1.00;;;15.60;74.80;;;;;;6059002;23;20543;-78
2022/03/14 11:30:53;;;;;;;3.83;1.20;;;16.90;73.00;;;;;;6056177;23;20447;-78
2022/03/14 11:33:21;;;;;;;2.30;0.97;;;18.00;70.90;;;;;;6061868;23;20544;-79
2022/03/14 11:35:48;;;;;;;1.30;0.90;;;19.10;69.10;;;;;;6049270;23;20861;-78
2022/03/14 11:38:17;;;;;;;2.37;1.13;;;20.30;67.70;;;;;;6060879;23;20467;-79
2022/03/14 11:40:45;;;;;;;1.70;1.10;;;21.20;64.70;;;;;;6051431;23;20865;-78
2022/03/14 11:43:13;;;;;;;2.90;1.30;;;21.90;62.40;;;;;;6059435;23;20438;-80
2022/03/14 11:45:42;;;;;;;2.03;1.30;;;22.40;60.00;;;;;;6057595;23;21065;-79
2022/03/14 11:48:09;;;;;;;1.10;1.00;;;23.00;58.00;;;;;;6054614;23;20474;-79
2022/03/14 11:50:44;;;;;;;2.20;0.90;;;22.90;56.90;;;;;;6057104;23;20435;-80
2022/03/14 11:53:19;;;;;;;1.10;0.80;;;23.20;55.50;;;;;;6052270;23;20474;-79
2022/03/14 11:55:55;;;;;;;2.67;0.93;;;22.90;54.70;;;;;;6055956;23;21029;-79
2022/03/14 11:58:30;;;;;;;3.20;1.10;;;22.00;55.30;;;;;;6048041;23;20462;-79
2022/03/14 12:00:59;;;;;;;1.90;1.30;;;21.40;55.40;;;;;;6054009;23;20930;-79
2022/03/14 12:03:37;;;;;;;1.93;1.10;;;20.60;56.00;;;;;;6051511;23;20520;-79
2022/03/14 12:06:04;;;;;;;2.50;1.17;;;20.20;56.30;;;;;;6049756;23;20467;-79
2022/03/14 12:08:59;;;;;;;1.93;0.90;;;20.00;58.20;;;;;;6056349;23;20526;-79
2022/03/14 12:11:42;;;;;;;1.67;1.27;;;20.20;57.50;;;;;;6062198;23;20436;-79
2022/03/14 12:14:12;;;;;;;1.07;0.97;;;20.60;57.60;;;;;;6048718;23;20480;-79
2022/03/14 12:16:43;;;;;;;2.00;1.00;;;21.30;56.90;;;;;;6054576;23;21069;-79
2022/03/14 12:19:30;;;;;;;1.33;0.80;;;21.80;56.10;;;;;;6059646;23;20457;-78
2022/03/14 12:21:58;;;;;;;2.67;1.10;;;20.90;56.20;;;;;;6052177;23;21073;-78
2022/03/14 12:24:46;;;;;;;1.40;0.87;;;20.00;57.20;;;;;;6056305;23;20439;-78
2022/03/14 12:27:15;;;;;;;3.00;1.20;;;19.90;57.90;;;;;;6054230;23;20464;-79
2022/03/14 12:29:43;;;;;;;2.03;1.10;;;20.40;57.90;;;;;;6049917;23;20454;-80
2022/03/14 12:32:29;;;;;;;2.10;1.00;;;21.20;56.70;;;;;;6052550;23;20885;-80
2022/03/14 12:34:57;;;;;;;2.00;1.10;;;21.70;57.20;;;;;;6057065;23;20802;-80
2022/03/14 12:37:26;;;;;;;1.83;1.00;;;22.00;55.70;;;;;;6054835;23;20553;-80
2022/03/14 12:39:52;;;;;;;2.37;1.10;;;22.00;56.10;;;;;;6045298;23;20523;-80
2022/03/14 12:42:25;;;;;;;2.37;1.20;;;22.00;55.40;;;;;;6050693;23;21692;-81
2022/03/14 12:45:18;;;;;;;2.67;1.23;;;22.10;55.20;;;;;;6055994;23;20463;-80
2022/03/14 12:47:58;;;;;;;1.50;1.20;;;22.10;55.10;;;;;;6052064;23;20438;-81
2022/03/14 12:50:53;;;;;;;2.20;1.20;;;22.10;55.20;;;;;;6058044;23;20466;-80
2022/03/14 12:53:47;;;;;;;4.80;1.37;;;21.20;56.20;;;;;;5969408;23;20438;-80
2022/03/14 12:56:20;;;;;;;2.40;1.13;;;20.90;56.50;;;;;;6048193;23;20533;-80